Time;durP1;ratioP1;P1;durP2;ratioP2;P2;SDS_P1;SDS_P2;PMS_P1;PMS_P2;Temp;Humidity;BMP_temperature;BMP_pressure;BME280_temperature;BME280_humidity;BME280_pressure;Samples;Min_cycle;Max_cycle;Signal;HPM_P1;HPM_P2
2021/07/30 00:00:05;;;;;;;5.70;4.00;;;17.60;71.80;;;;;;4967120;28;20039;-65
2021/07/30 00:02:31;;;;;;;4.47;4.07;;;17.60;72.00;;;;;;4957881;28;20074;-65
2021/07/30 00:04:56;;;;;;;5.70;3.72;;;17.60;71.90;;;;;;4970977;28;20060;-65
2021/07/30 00:07:22;;;;;;;4.13;3.75;;;17.60;72.00;;;;;;4966610;28;20035;-66
2021/07/30 00:09:47;;;;;;;3.58;3.25;;;17.60;72.00;;;;;;4967616;28;20207;-66
2021/07/30 00:12:13;;;;;;;4.47;4.05;;;17.50;71.90;;;;;;4965116;28;20093;-66
2021/07/30 00:14:39;;;;;;;3.97;3.63;;;17.50;72.00;;;;;;4968216;28;20382;-65
2021/07/30 00:17:04;;;;;;;5.50;3.90;;;17.50;72.10;;;;;;4966770;28;20076;-66
2021/07/30 00:19:30;;;;;;;4.50;3.58;;;17.50;72.30;;;;;;4968863;28;20061;-65
2021/07/30 00:21:56;;;;;;;4.22;3.55;;;17.50;72.30;;;;;;4970275;28;20089;-66
2021/07/30 00:24:21;;;;;;;4.15;3.65;;;17.50;72.20;;;;;;4958095;28;20046;-65
2021/07/30 00:26:48;;;;;;;7.03;3.70;;;17.50;72.00;;;;;;4963165;28;20121;-65
2021/07/30 00:29:14;;;;;;;7.20;3.70;;;17.50;72.10;;;;;;4965983;28;20386;-65
2021/07/30 00:31:39;;;;;;;4.40;4.00;;;17.50;72.30;;;;;;4963487;28;20046;-65
2021/07/30 00:34:05;;;;;;;4.10;3.70;;;17.50;72.30;;;;;;4962183;28;20047;-65
2021/07/30 00:36:31;;;;;;;4.57;4.15;;;17.50;72.50;;;;;;4968385;28;20053;-66
2021/07/30 00:38:57;;;;;;;5.47;4.60;;;17.50;72.50;;;;;;4967812;28;20117;-65
2021/07/30 00:41:23;;;;;;;6.28;4.90;;;17.40;72.30;;;;;;4965569;28;20038;-66
2021/07/30 00:43:49;;;;;;;4.80;4.32;;;17.40;72.50;;;;;;4965187;28;20038;-65
2021/07/30 00:46:15;;;;;;;4.63;4.10;;;17.40;72.80;;;;;;4964366;28;20053;-65
2021/07/30 00:48:42;;;;;;;4.57;4.13;;;17.40;72.80;;;;;;4964718;28;20039;-65
2021/07/30 00:51:08;;;;;;;7.07;4.47;;;17.40;73.40;;;;;;4965432;28;20030;-65
2021/07/30 00:53:34;;;;;;;4.75;4.35;;;17.40;72.80;;;;;;4965632;28;20049;-65
2021/07/30 00:55:59;;;;;;;5.78;4.25;;;17.50;72.80;;;;;;4963290;28;20037;-66
2021/07/30 00:58:29;;;;;;;5.13;4.57;;;17.50;72.80;;;;;;4966106;28;20565;-65
2021/07/30 01:00:55;;;;;;;4.90;4.40;;;17.40;72.80;;;;;;4964420;28;20126;-65
2021/07/30 01:03:21;;;;;;;5.57;4.85;;;17.40;72.70;;;;;;4962757;28;20066;-65
2021/07/30 01:05:49;;;;;;;5.78;4.85;;;17.40;72.60;;;;;;4968284;28;20162;-66
2021/07/30 01:08:15;;;;;;;5.10;4.20;;;17.40;72.80;;;;;;4968145;28;20054;-65
2021/07/30 01:10:40;;;;;;;4.93;4.53;;;17.30;73.00;;;;;;4962878;28;20040;-65
2021/07/30 01:13:06;;;;;;;6.68;4.60;;;17.30;73.30;;;;;;4960434;28;21397;-65
2021/07/30 01:15:32;;;;;;;5.50;4.50;;;17.30;73.50;;;;;;4962380;28;20109;-65
2021/07/30 01:17:58;;;;;;;5.20;4.70;;;17.30;73.70;;;;;;4966085;28;20194;-65
2021/07/30 01:20:25;;;;;;;8.23;4.40;;;17.30;73.80;;;;;;4967776;28;20121;-65
2021/07/30 01:22:59;;;;;;;6.30;4.57;;;17.30;73.90;;;;;;4964177;28;20070;-65
2021/07/30 01:25:27;;;;;;;5.82;4.75;;;17.40;74.30;;;;;;4982923;28;20030;-65
2021/07/30 01:27:54;;;;;;;7.25;4.47;;;17.40;74.00;;;;;;4962942;28;20138;-65
2021/07/30 01:30:21;;;;;;;5.97;5.03;;;17.50;73.70;;;;;;4965246;28;20514;-66
2021/07/30 01:32:47;;;;;;;5.13;4.32;;;17.50;73.90;;;;;;4961712;28;20579;-65
2021/07/30 01:35:13;;;;;;;7.65;4.35;;;17.60;73.50;;;;;;4965813;28;22709;-65
2021/07/30 01:37:39;;;;;;;5.13;4.57;;;17.70;73.50;;;;;;4965446;28;20291;-66
2021/07/30 01:40:06;;;;;;;5.40;4.90;;;17.70;73.50;;;;;;4966615;28;20038;-65
2021/07/30 01:42:32;;;;;;;5.50;4.82;;;17.70;73.70;;;;;;4961952;28;20070;-65
2021/07/30 01:44:58;;;;;;;7.63;4.93;;;17.80;73.50;;;;;;4964458;28;20085;-65
2021/07/30 01:47:23;;;;;;;5.47;4.72;;;17.80;73.50;;;;;;4966258;28;20034;-65
2021/07/30 01:49:50;;;;;;;10.20;5.35;;;17.80;73.50;;;;;;4962794;28;20097;-65
2021/07/30 01:52:16;;;;;;;5.00;4.50;;;17.90;73.50;;;;;;4964067;28;20059;-65
2021/07/30 01:54:42;;;;;;;5.40;4.60;;;17.80;73.30;;;;;;4965711;28;20023;-65
2021/07/30 01:57:08;;;;;;;6.28;4.72;;;17.90;73.30;;;;;;4962834;28;20102;-65
2021/07/30 01:59:33;;;;;;;4.78;4.28;;;17.90;73.30;;;;;;4964103;28;20035;-65
2021/07/30 02:01:59;;;;;;;8.55;4.35;;;17.90;73.20;;;;;;4964842;28;20031;-65
2021/07/30 02:04:24;;;;;;;4.53;4.13;;;17.90;73.00;;;;;;4963434;28;20039;-65
2021/07/30 02:06:50;;;;;;;6.40;4.90;;;17.90;73.00;;;;;;4967412;28;20449;-65
2021/07/30 02:09:16;;;;;;;4.95;4.45;;;18.00;73.10;;;;;;4967007;28;20486;-66
2021/07/30 02:11:42;;;;;;;5.78;4.53;;;18.00;73.10;;;;;;4961472;28;20050;-65
2021/07/30 02:14:15;;;;;;;4.97;4.53;;;18.00;73.20;;;;;;4960121;28;20509;-65
2021/07/30 02:16:42;;;;;;;8.95;4.75;;;18.10;73.00;;;;;;4960220;28;20039;-65
2021/07/30 02:19:08;;;;;;;5.30;4.50;;;18.00;72.80;;;;;;4960508;28;20655;-65
2021/07/30 02:21:34;;;;;;;5.93;4.68;;;18.00;72.60;;;;;;4961362;28;20039;-65
2021/07/30 02:23:59;;;;;;;6.03;4.35;;;18.00;72.60;;;;;;4959913;28;20125;-65
2021/07/30 02:26:25;;;;;;;4.50;4.10;;;18.00;72.70;;;;;;4960990;28;20045;-66
2021/07/30 02:28:53;;;;;;;5.30;4.07;;;17.90;72.60;;;;;;4958663;28;20050;-65
2021/07/30 02:31:19;;;;;;;5.05;4.45;;;17.90;73.00;;;;;;4960389;28;20039;-65
2021/07/30 02:33:44;;;;;;;5.13;4.28;;;17.90;73.20;;;;;;4961496;28;20041;-65
2021/07/30 02:36:10;;;;;;;4.57;4.10;;;17.80;73.30;;;;;;4963880;28;20035;-66
2021/07/30 02:38:36;;;;;;;5.03;4.53;;;17.80;73.50;;;;;;4965412;28;20030;-65
2021/07/30 02:41:01;;;;;;;5.05;4.00;;;17.80;73.30;;;;;;4963344;28;20090;-65
2021/07/30 02:43:27;;;;;;;4.40;3.60;;;17.80;73.10;;;;;;4962982;28;20038;-65
2021/07/30 02:45:52;;;;;;;4.80;4.07;;;17.70;73.10;;;;;;4963691;28;20584;-65
2021/07/30 02:48:18;;;;;;;6.72;4.18;;;17.70;73.10;;;;;;4963675;28;20047;-65
2021/07/30 02:50:44;;;;;;;5.28;4.20;;;17.70;73.20;;;;;;4963824;28;20045;-65
2021/07/30 02:53:09;;;;;;;5.13;3.97;;;17.60;73.20;;;;;;4963010;28;20541;-65
2021/07/30 02:55:35;;;;;;;5.68;4.25;;;17.70;73.20;;;;;;4965338;28;20042;-65
2021/07/30 02:58:00;;;;;;;5.22;4.20;;;17.60;73.20;;;;;;4964149;28;20040;-66
2021/07/30 03:00:26;;;;;;;4.95;4.35;;;17.60;73.20;;;;;;4964798;28;20065;-65
2021/07/30 03:02:52;;;;;;;6.38;4.45;;;17.50;73.30;;;;;;4967150;28;20038;-65
2021/07/30 03:05:17;;;;;;;5.20;4.70;;;17.50;73.50;;;;;;4968013;28;20066;-65
2021/07/30 03:07:43;;;;;;;7.50;4.70;;;17.30;73.70;;;;;;4969528;28;20670;-65
2021/07/30 03:10:09;;;;;;;4.28;3.88;;;17.30;73.90;;;;;;4965743;28;21500;-65
2021/07/30 03:12:35;;;;;;;5.88;3.95;;;17.30;74.00;;;;;;4968045;28;20074;-65
2021/07/30 03:15:00;;;;;;;5.10;4.20;;;17.20;73.90;;;;;;4965588;28;20505;-65
2021/07/30 03:17:26;;;;;;;6.63;4.38;;;17.20;74.00;;;;;;4968713;28;20081;-66
2021/07/30 03:19:52;;;;;;;7.68;4.78;;;17.20;74.10;;;;;;4968347;28;20161;-65
2021/07/30 03:22:17;;;;;;;5.53;4.43;;;17.20;74.10;;;;;;4965498;28;20034;-66
2021/07/30 03:24:43;;;;;;;5.55;4.60;;;17.20;74.20;;;;;;4966233;28;20035;-65
2021/07/30 03:27:08;;;;;;;5.70;4.93;;;17.10;74.30;;;;;;4966346;28;20039;-65
2021/07/30 03:29:34;;;;;;;5.57;4.32;;;17.10;74.60;;;;;;4967698;28;20038;-65
2021/07/30 03:32:00;;;;;;;7.95;4.50;;;17.00;74.60;;;;;;4965250;28;20058;-65
2021/07/30 03:34:27;;;;;;;6.55;3.90;;;17.00;74.80;;;;;;4965548;28;20064;-65
2021/07/30 03:36:53;;;;;;;5.68;4.25;;;16.90;74.90;;;;;;4966886;28;20043;-65
2021/07/30 03:39:18;;;;;;;6.22;4.25;;;16.90;75.10;;;;;;4964509;28;20114;-66
2021/07/30 03:41:44;;;;;;;6.03;4.60;;;16.90;75.00;;;;;;4963462;28;20670;-65
2021/07/30 03:44:09;;;;;;;5.75;4.28;;;16.90;75.30;;;;;;4963517;28;20090;-65
2021/07/30 03:46:35;;;;;;;7.78;4.65;;;16.90;75.40;;;;;;4963405;28;20042;-65
2021/07/30 03:49:01;;;;;;;5.93;4.05;;;17.00;75.50;;;;;;4964007;28;20043;-65
2021/07/30 03:51:26;;;;;;;5.70;3.85;;;17.00;75.80;;;;;;4967760;28;20067;-65
2021/07/30 03:53:52;;;;;;;6.25;4.10;;;17.00;75.80;;;;;;4970843;28;20077;-65
2021/07/30 03:56:18;;;;;;;6.10;4.35;;;17.00;75.90;;;;;;4968859;28;20062;-65
2021/07/30 03:58:45;;;;;;;5.47;4.60;;;17.00;75.90;;;;;;4970686;28;20043;-65
2021/07/30 04:01:11;;;;;;;5.30;4.70;;;17.10;75.80;;;;;;4963569;28;20042;-65
2021/07/30 04:03:38;;;;;;;10.32;4.38;;;17.10;75.60;;;;;;4962636;28;20074;-65
2021/07/30 04:06:04;;;;;;;8.27;4.93;;;17.10;75.70;;;;;;4964221;28;20163;-66
2021/07/30 04:08:33;;;;;;;5.63;4.68;;;17.20;75.80;;;;;;4964982;28;20027;-65
2021/07/30 04:10:59;;;;;;;7.13;5.35;;;17.20;75.90;;;;;;4963910;28;20146;-65
2021/07/30 04:13:25;;;;;;;9.75;5.40;;;17.20;75.60;;;;;;4962052;28;20037;-65
2021/07/30 04:15:51;;;;;;;6.97;5.22;;;17.20;75.20;;;;;;4962929;28;20030;-65
2021/07/30 04:18:16;;;;;;;10.30;5.15;;;17.30;75.10;;;;;;4962446;28;20117;-65
2021/07/30 04:20:42;;;;;;;6.57;5.13;;;17.20;75.10;;;;;;4968366;28;20070;-65
2021/07/30 04:23:08;;;;;;;6.18;4.65;;;17.10;75.10;;;;;;4968784;28;20062;-65
2021/07/30 04:25:38;;;;;;;6.88;4.45;;;17.10;75.20;;;;;;4965984;28;20031;-65
2021/07/30 04:28:04;;;;;;;6.47;4.45;;;17.10;75.40;;;;;;4967783;28;20062;-65
2021/07/30 04:30:29;;;;;;;5.40;4.38;;;17.00;75.40;;;;;;4965844;28;20043;-65
2021/07/30 04:32:55;;;;;;;6.00;4.95;;;17.00;75.70;;;;;;4965356;28;20058;-65
2021/07/30 04:35:20;;;;;;;5.57;4.63;;;17.00;75.70;;;;;;4961864;28;20035;-65
2021/07/30 04:37:46;;;;;;;5.32;4.03;;;17.00;75.60;;;;;;4965553;28;20035;-66
2021/07/30 04:40:12;;;;;;;7.30;4.22;;;17.10;75.60;;;;;;4965613;28;20093;-66
2021/07/30 04:42:37;;;;;;;5.75;4.40;;;17.10;75.60;;;;;;4968009;28;20130;-66
2021/07/30 04:45:03;;;;;;;8.70;4.65;;;17.10;75.80;;;;;;4969332;28;20039;-66
2021/07/30 04:47:29;;;;;;;8.25;4.68;;;17.10;75.80;;;;;;4965492;28;20030;-65
2021/07/30 04:49:54;;;;;;;11.02;4.63;;;17.10;75.70;;;;;;4966814;28;20035;-66
2021/07/30 04:52:20;;;;;;;14.38;5.15;;;17.10;75.80;;;;;;4969385;28;20027;-66
2021/07/30 04:54:46;;;;;;;7.70;5.60;;;17.00;76.00;;;;;;4969232;28;20490;-66
2021/07/30 04:57:11;;;;;;;8.98;5.07;;;17.00;76.40;;;;;;4967422;28;20459;-66
2021/07/30 04:59:37;;;;;;;6.70;5.72;;;17.00;76.60;;;;;;4969893;28;20122;-65
2021/07/30 05:02:03;;;;;;;7.22;5.40;;;16.90;76.80;;;;;;4969143;28;20027;-65
2021/07/30 05:04:28;;;;;;;5.53;4.97;;;16.80;76.90;;;;;;4967327;28;20101;-66
2021/07/30 05:06:54;;;;;;;7.00;5.07;;;16.80;77.20;;;;;;4966218;28;20114;-66
2021/07/30 05:09:20;;;;;;;6.72;5.32;;;16.80;77.30;;;;;;4968745;28;20039;-66
2021/07/30 05:11:45;;;;;;;7.00;5.38;;;16.90;77.70;;;;;;4965972;28;20405;-65
2021/07/30 05:14:11;;;;;;;5.90;5.20;;;16.90;77.90;;;;;;4968418;28;20058;-65
2021/07/30 05:16:37;;;;;;;9.90;5.78;;;16.90;77.70;;;;;;4967191;28;20046;-65
2021/07/30 05:19:03;;;;;;;10.32;5.93;;;16.90;77.70;;;;;;4969850;28;20037;-65
2021/07/30 05:21:29;;;;;;;5.95;5.35;;;17.00;77.80;;;;;;4968842;28;20082;-65
2021/07/30 05:23:54;;;;;;;7.45;5.78;;;17.00;78.00;;;;;;4967208;28;20162;-66
2021/07/30 05:26:20;;;;;;;8.57;5.43;;;17.10;78.20;;;;;;4967066;28;20625;-66
2021/07/30 05:28:46;;;;;;;8.75;5.40;;;17.10;78.20;;;;;;4969514;28;20489;-66
2021/07/30 05:31:16;;;;;;;7.65;5.60;;;17.20;78.30;;;;;;4967856;28;20038;-65
2021/07/30 05:33:42;;;;;;;9.52;5.35;;;17.20;78.60;;;;;;4968734;28;20035;-66
2021/07/30 05:36:12;;;;;;;7.72;5.47;;;17.30;78.50;;;;;;4967215;28;20113;-65
2021/07/30 05:38:37;;;;;;;6.72;5.53;;;17.30;78.40;;;;;;4965605;28;20477;-65
2021/07/30 05:41:03;;;;;;;7.70;5.35;;;17.40;78.40;;;;;;4968150;28;20038;-65
2021/07/30 05:43:29;;;;;;;16.70;6.00;;;17.40;78.40;;;;;;4968064;28;20062;-66
2021/07/30 05:45:54;;;;;;;8.52;5.82;;;17.50;78.40;;;;;;4967184;28;20338;-65
2021/07/30 05:48:22;;;;;;;9.27;5.50;;;17.50;78.40;;;;;;4964597;28;20101;-65
2021/07/30 05:50:48;;;;;;;8.50;5.20;;;17.60;78.50;;;;;;4967070;28;20054;-66
2021/07/30 05:53:14;;;;;;;7.85;5.53;;;17.70;78.50;;;;;;4965695;28;20039;-65
2021/07/30 05:55:39;;;;;;;7.40;5.28;;;17.70;78.60;;;;;;4966366;28;20049;-65
2021/07/30 05:58:05;;;;;;;7.20;5.28;;;17.80;78.40;;;;;;4967863;28;20090;-65
2021/07/30 06:00:31;;;;;;;6.00;5.30;;;17.80;78.20;;;;;;4969651;28;20077;-65
2021/07/30 06:02:56;;;;;;;10.88;5.20;;;17.90;78.10;;;;;;4967936;28;20367;-65
2021/07/30 06:05:22;;;;;;;7.85;5.20;;;18.00;78.40;;;;;;4964662;28;20039;-65
2021/07/30 06:07:48;;;;;;;5.95;5.35;;;18.10;78.40;;;;;;4967161;28;20053;-66
2021/07/30 06:10:13;;;;;;;8.63;5.22;;;18.10;78.00;;;;;;4966924;28;20102;-65
2021/07/30 06:12:39;;;;;;;11.75;5.72;;;18.20;77.70;;;;;;4966032;28;20073;-65
2021/07/30 06:15:05;;;;;;;8.55;5.07;;;18.30;77.50;;;;;;4968516;28;20090;-66
2021/07/30 06:17:31;;;;;;;6.05;5.35;;;18.40;77.20;;;;;;4968135;28;20039;-65
2021/07/30 06:19:57;;;;;;;6.75;5.38;;;18.40;77.00;;;;;;4965426;28;20043;-65
2021/07/30 06:22:22;;;;;;;9.23;5.15;;;18.50;76.70;;;;;;4967360;28;20453;-65
2021/07/30 06:24:48;;;;;;;7.88;5.57;;;18.50;76.40;;;;;;4968616;28;20299;-66
2021/07/30 06:27:15;;;;;;;5.95;5.35;;;18.60;76.30;;;;;;4968528;28;20035;-66
2021/07/30 06:29:41;;;;;;;6.78;5.30;;;18.70;76.30;;;;;;4966687;28;20122;-65
2021/07/30 06:32:07;;;;;;;7.13;5.57;;;18.80;76.30;;;;;;4968913;28;20043;-65
2021/07/30 06:34:33;;;;;;;7.78;5.38;;;18.90;76.30;;;;;;4969287;28;20382;-65
2021/07/30 06:36:59;;;;;;;8.77;5.20;;;18.90;76.30;;;;;;4968803;28;20086;-65
2021/07/30 06:39:25;;;;;;;7.00;5.40;;;19.00;76.00;;;;;;4970613;28;20031;-66
2021/07/30 06:41:51;;;;;;;6.80;6.00;;;19.10;76.00;;;;;;4971819;28;20026;-65
2021/07/30 06:44:17;;;;;;;8.00;5.45;;;19.20;75.80;;;;;;4971757;28;20046;-65
2021/07/30 06:46:42;;;;;;;6.85;5.95;;;19.20;75.50;;;;;;4971274;28;20568;-65
2021/07/30 06:49:08;;;;;;;8.32;5.68;;;19.30;75.30;;;;;;4965693;28;20072;-66
2021/07/30 06:51:34;;;;;;;7.13;4.82;;;19.40;74.90;;;;;;4968196;28;20528;-65
2021/07/30 06:54:00;;;;;;;7.45;5.60;;;19.50;75.00;;;;;;4971507;28;20566;-66
2021/07/30 06:56:26;;;;;;;5.88;5.30;;;19.50;75.00;;;;;;4968580;28;20035;-65
2021/07/30 06:58:52;;;;;;;10.25;6.15;;;19.60;74.80;;;;;;4972704;28;20030;-65
2021/07/30 07:01:17;;;;;;;10.20;5.82;;;19.70;74.40;;;;;;4971269;28;20031;-65
2021/07/30 07:03:43;;;;;;;13.15;5.82;;;19.80;74.60;;;;;;4967164;28;20039;-65
2021/07/30 07:06:16;;;;;;;8.20;5.55;;;19.80;74.30;;;;;;4969401;28;20085;-66
2021/07/30 07:08:42;;;;;;;7.38;5.82;;;19.90;74.30;;;;;;4969050;28;20422;-66
2021/07/30 07:11:08;;;;;;;8.48;6.25;;;20.00;74.00;;;;;;4968644;28;20043;-66
2021/07/30 07:13:34;;;;;;;8.10;6.30;;;20.10;73.80;;;;;;4970574;28;20073;-66
2021/07/30 07:16:00;;;;;;;6.30;5.68;;;20.20;73.70;;;;;;4969781;28;20444;-66
2021/07/30 07:18:26;;;;;;;8.75;5.75;;;20.30;73.90;;;;;;4970455;28;20417;-65
2021/07/30 07:20:57;;;;;;;7.55;5.38;;;20.40;73.90;;;;;;4971723;28;20081;-66
2021/07/30 07:23:23;;;;;;;7.70;5.35;;;20.50;73.90;;;;;;4968427;28;20398;-66
2021/07/30 07:25:48;;;;;;;9.65;5.90;;;20.50;73.50;;;;;;4967838;28;20035;-66
2021/07/30 07:28:14;;;;;;;9.65;5.95;;;20.70;73.20;;;;;;4969292;28;20705;-65
2021/07/30 07:30:40;;;;;;;8.00;5.93;;;20.70;72.70;;;;;;4971772;28;20031;-66
2021/07/30 07:33:05;;;;;;;7.10;6.05;;;20.80;72.80;;;;;;4969768;28;20394;-66
2021/07/30 07:35:31;;;;;;;6.05;5.38;;;20.90;72.60;;;;;;4966802;28;20039;-66
2021/07/30 07:38:04;;;;;;;7.35;5.97;;;21.00;72.30;;;;;;4966757;28;20126;-65
2021/07/30 07:40:30;;;;;;;6.75;5.80;;;21.10;71.80;;;;;;4970482;28;20054;-65
2021/07/30 07:42:57;;;;;;;7.88;5.68;;;21.20;72.10;;;;;;4970301;28;20031;-66
2021/07/30 07:45:23;;;;;;;10.27;5.90;;;21.30;72.20;;;;;;4968891;28;20026;-65
2021/07/30 07:47:49;;;;;;;8.70;5.78;;;21.40;71.60;;;;;;4971611;28;20039;-66
2021/07/30 07:50:14;;;;;;;6.57;5.20;;;21.50;71.60;;;;;;4971668;28;20037;-66
2021/07/30 07:52:40;;;;;;;11.68;5.63;;;21.70;71.60;;;;;;4967032;28;20035;-65
2021/07/30 07:55:08;;;;;;;5.78;5.10;;;21.70;72.30;;;;;;4970213;28;20134;-66
2021/07/30 07:57:34;;;;;;;6.60;5.85;;;21.90;71.60;;;;;;4966630;28;20540;-65
2021/07/30 07:59:59;;;;;;;6.15;4.93;;;22.00;71.00;;;;;;4970773;28;20031;-65
2021/07/30 08:02:25;;;;;;;6.45;4.85;;;22.10;70.50;;;;;;4968169;28;20524;-66
2021/07/30 08:04:51;;;;;;;7.03;5.40;;;22.20;70.40;;;;;;4971397;28;20395;-66
2021/07/30 08:07:17;;;;;;;5.57;4.70;;;22.30;70.00;;;;;;4967935;28;20046;-65
2021/07/30 08:09:46;;;;;;;5.28;4.78;;;22.40;69.00;;;;;;4969903;28;20045;-66
2021/07/30 08:12:12;;;;;;;6.40;4.10;;;22.50;69.20;;;;;;4967582;28;20035;-65
2021/07/30 08:14:39;;;;;;;5.20;4.22;;;22.60;68.70;;;;;;4968433;28;20035;-65
2021/07/30 08:17:05;;;;;;;6.00;4.13;;;22.70;68.10;;;;;;4970030;28;20035;-65
2021/07/30 08:19:35;;;;;;;4.53;4.13;;;22.80;67.80;;;;;;4970276;28;20498;-66
2021/07/30 08:22:01;;;;;;;5.20;4.53;;;22.90;67.40;;;;;;4968315;28;20482;-65
2021/07/30 08:24:27;;;;;;;4.97;4.10;;;23.00;67.10;;;;;;4964643;28;20045;-65
2021/07/30 08:26:53;;;;;;;6.03;4.60;;;23.10;66.60;;;;;;4968939;28;20034;-65
2021/07/30 08:29:18;;;;;;;4.78;4.00;;;23.30;66.70;;;;;;4969424;28;20408;-65
2021/07/30 08:31:44;;;;;;;4.40;4.03;;;23.40;65.70;;;;;;4969995;28;20031;-65
2021/07/30 08:34:14;;;;;;;4.50;4.10;;;23.50;65.00;;;;;;4970000;28;20486;-65
2021/07/30 08:36:40;;;;;;;4.55;3.58;;;23.60;64.30;;;;;;4968378;28;20042;-66
2021/07/30 08:39:05;;;;;;;4.25;3.85;;;23.70;64.40;;;;;;4966932;28;20035;-66
2021/07/30 08:41:32;;;;;;;5.47;4.28;;;23.80;64.00;;;;;;4967959;28;20045;-66
2021/07/30 08:43:58;;;;;;;5.28;4.03;;;23.90;63.40;;;;;;4968080;28;20061;-65
2021/07/30 08:46:30;;;;;;;5.65;3.72;;;23.90;63.30;;;;;;4965645;28;20458;-66
2021/07/30 08:48:55;;;;;;;6.18;3.92;;;24.10;62.80;;;;;;4966395;28;20035;-66
2021/07/30 08:51:24;;;;;;;5.00;4.50;;;24.10;63.40;;;;;;4969540;28;20031;-65
2021/07/30 08:53:50;;;;;;;5.50;4.10;;;24.20;62.40;;;;;;4967158;28;20054;-66
2021/07/30 08:56:17;;;;;;;4.38;3.92;;;24.30;61.70;;;;;;4963228;28;20137;-65
2021/07/30 08:58:46;;;;;;;5.22;3.60;;;24.40;62.30;;;;;;4965799;28;20073;-65
2021/07/30 09:01:13;;;;;;;4.20;3.78;;;24.50;61.90;;;;;;4969995;28;20039;-65
2021/07/30 09:03:44;;;;;;;7.90;4.15;;;24.60;61.60;;;;;;4964596;28;20054;-65
2021/07/30 09:06:17;;;;;;;4.80;4.10;;;24.70;61.10;;;;;;4968983;28;20035;-65
2021/07/30 09:08:44;;;;;;;4.43;4.03;;;24.80;60.90;;;;;;4966859;28;20126;-66
2021/07/30 09:11:35;;;;;;;6.18;4.63;;;24.90;60.60;;;;;;4965366;28;20038;-66
2021/07/30 09:14:08;;;;;;;5.22;4.03;;;25.00;58.90;;;;;;4968470;28;20379;-66
2021/07/30 09:16:51;;;;;;;4.45;4.03;;;25.10;59.70;;;;;;4965907;28;20043;-66
2021/07/30 09:19:18;;;;;;;4.57;4.18;;;25.20;59.50;;;;;;4968399;28;20049;-66
2021/07/30 09:21:44;;;;;;;4.38;3.88;;;25.30;59.70;;;;;;4966070;28;20125;-65
2021/07/30 09:24:11;;;;;;;4.53;4.10;;;25.40;59.00;;;;;;4967615;28;20537;-66
2021/07/30 09:26:50;;;;;;;4.28;3.85;;;25.50;58.00;;;;;;4964707;28;20109;-65
2021/07/30 09:29:24;;;;;;;4.72;3.90;;;25.50;57.70;;;;;;4968264;28;20089;-66
2021/07/30 09:32:02;;;;;;;4.35;4.03;;;25.60;58.50;;;;;;4967604;28;20549;-65
2021/07/30 09:34:31;;;;;;;5.07;4.50;;;25.70;58.20;;;;;;4965788;28;20043;-66
2021/07/30 09:37:03;;;;;;;5.90;4.03;;;25.80;58.40;;;;;;4967153;28;20118;-66
2021/07/30 09:39:45;;;;;;;5.75;4.10;;;25.90;58.40;;;;;;4968125;28;20030;-66
2021/07/30 09:42:12;;;;;;;4.82;4.03;;;26.00;58.10;;;;;;4967249;28;20027;-66
2021/07/30 09:44:44;;;;;;;5.72;4.28;;;26.10;58.30;;;;;;4968293;28;20046;-66
2021/07/30 09:47:18;;;;;;;4.40;3.92;;;26.20;57.40;;;;;;4968700;28;20095;-66
2021/07/30 09:49:51;;;;;;;4.30;3.92;;;26.30;57.20;;;;;;4968987;28;20564;-66
2021/07/30 09:52:27;;;;;;;5.18;4.32;;;26.40;57.00;;;;;;4964653;28;20038;-66
2021/07/30 09:55:05;;;;;;;4.35;3.95;;;26.50;55.50;;;;;;4962599;28;20034;-66
2021/07/30 09:57:32;;;;;;;4.47;4.07;;;26.60;55.20;;;;;;4964839;28;20437;-66
2021/07/30 10:00:24;;;;;;;4.70;3.97;;;26.60;56.50;;;;;;4969194;28;20031;-66
2021/07/30 10:02:50;;;;;;;4.65;4.13;;;26.70;55.00;;;;;;4966420;28;20041;-65
2021/07/30 10:05:17;;;;;;;6.78;4.30;;;26.80;55.70;;;;;;4967164;28;20035;-66
2021/07/30 10:07:43;;;;;;;5.22;4.57;;;26.90;55.50;;;;;;4966885;28;20502;-66
2021/07/30 10:13:06;;;;;;;4.65;4.20;;;26.90;54.90;;;;;;4966719;28;20043;-66
2021/07/30 10:15:33;;;;;;;4.40;4.00;;;26.90;55.40;;;;;;4970770;28;20035;-66
2021/07/30 10:18:02;;;;;;;4.63;4.22;;;27.00;55.20;;;;;;4968423;28;20046;-66
2021/07/30 10:20:27;;;;;;;4.65;4.22;;;26.90;55.30;;;;;;4971981;28;20066;-67
2021/07/30 10:23:11;;;;;;;4.32;3.80;;;27.00;55.30;;;;;;4972704;28;20556;-66
2021/07/30 10:25:52;;;;;;;7.07;4.22;;;27.10;54.80;;;;;;4970276;28;20039;-66
2021/07/30 10:28:24;;;;;;;4.82;3.55;;;27.10;55.10;;;;;;4969907;28;20510;-66
2021/07/30 10:30:53;;;;;;;4.28;3.88;;;27.20;55.50;;;;;;4969748;28;20474;-66
2021/07/30 10:33:45;;;;;;;4.05;3.70;;;27.20;54.50;;;;;;4970917;28;20047;-66
2021/07/30 10:36:31;;;;;;;4.10;3.70;;;27.30;54.50;;;;;;4972584;28;20034;-66
2021/07/30 10:39:07;;;;;;;3.72;3.42;;;27.40;54.00;;;;;;4971484;28;20058;-66
2021/07/30 10:41:33;;;;;;;4.25;3.88;;;27.50;52.90;;;;;;4972563;28;20039;-66
2021/07/30 10:44:01;;;;;;;7.15;4.03;;;27.60;53.50;;;;;;4970258;28;20098;-66
2021/07/30 10:46:28;;;;;;;4.82;4.32;;;27.70;52.50;;;;;;4969005;28;20494;-66
2021/07/30 10:48:54;;;;;;;4.75;4.35;;;27.70;52.60;;;;;;4969283;28;20133;-66
2021/07/30 10:51:27;;;;;;;4.72;4.18;;;27.70;52.30;;;;;;4971520;28;20027;-66
2021/07/30 10:53:56;;;;;;;4.25;3.88;;;27.70;52.30;;;;;;4966770;28;20046;-66
2021/07/30 10:56:21;;;;;;;5.03;4.05;;;27.70;52.30;;;;;;4969572;28;20038;-66
2021/07/30 10:58:52;;;;;;;5.60;4.07;;;27.80;51.80;;;;;;4967410;28;20298;-66
2021/07/30 11:01:22;;;;;;;4.45;4.05;;;27.80;52.40;;;;;;4969135;28;20585;-66
2021/07/30 11:03:54;;;;;;;4.95;4.40;;;27.80;52.10;;;;;;4967918;28;20047;-66
2021/07/30 11:06:50;;;;;;;4.60;4.20;;;27.90;51.80;;;;;;4969242;28;20034;-66
2021/07/30 11:09:17;;;;;;;4.60;4.20;;;27.90;52.10;;;;;;4969623;28;20031;-66
2021/07/30 11:11:47;;;;;;;4.70;3.83;;;27.90;52.60;;;;;;4969309;28;20046;-66
2021/07/30 11:14:12;;;;;;;4.53;4.10;;;28.00;52.30;;;;;;4965252;28;20042;-66
2021/07/30 11:16:45;;;;;;;4.65;4.15;;;28.00;52.60;;;;;;4968602;28;20027;-66
2021/07/30 11:19:12;;;;;;;5.30;4.03;;;28.10;52.30;;;;;;4969394;28;20633;-66
2021/07/30 11:21:38;;;;;;;6.88;4.38;;;28.20;52.30;;;;;;4965991;28;20053;-67
2021/07/30 11:24:05;;;;;;;4.43;4.05;;;28.20;52.50;;;;;;4968889;28;20035;-66
2021/07/30 11:26:33;;;;;;;4.70;4.32;;;28.30;52.90;;;;;;4967702;28;20511;-66
2021/07/30 11:29:05;;;;;;;5.60;4.40;;;28.40;52.00;;;;;;4967508;28;20038;-66
2021/07/30 11:31:31;;;;;;;5.03;4.40;;;28.40;51.40;;;;;;4970147;28;20449;-66
2021/07/30 11:33:57;;;;;;;4.85;3.70;;;28.50;51.50;;;;;;4968036;28;20039;-66
2021/07/30 11:36:23;;;;;;;6.15;4.05;;;28.50;51.50;;;;;;4968711;28;20035;-66
2021/07/30 11:38:50;;;;;;;4.78;4.18;;;28.60;51.30;;;;;;4969597;28;20396;-66
2021/07/30 11:41:16;;;;;;;4.43;4.13;;;28.60;51.10;;;;;;4969331;28;20035;-66
2021/07/30 11:46:23;;;;;;;5.18;4.30;;;28.60;50.70;;;;;;5080818;27;20526;-65
2021/07/30 11:48:48;;;;;;;4.63;4.13;;;28.60;50.70;;;;;;5108982;28;20062;-65
2021/07/30 11:51:14;;;;;;;4.07;3.78;;;28.70;51.00;;;;;;5079639;27;20124;-65
2021/07/30 11:53:40;;;;;;;7.30;4.47;;;28.70;51.30;;;;;;5086335;28;20029;-65
2021/07/30 11:56:06;;;;;;;4.70;4.22;;;28.70;51.20;;;;;;5078263;28;20056;-66
2021/07/30 11:58:31;;;;;;;4.45;3.95;;;28.80;51.10;;;;;;5072426;28;20424;-65
2021/07/30 12:01:12;;;;;;;4.00;3.70;;;28.90;51.30;;;;;;5045212;28;20106;-66
2021/07/30 12:03:38;;;;;;;4.20;3.70;;;28.90;50.60;;;;;;5045550;28;20041;-65
2021/07/30 12:06:03;;;;;;;4.85;4.07;;;29.00;50.80;;;;;;5038610;28;20075;-65
2021/07/30 12:08:36;;;;;;;8.48;4.50;;;29.00;50.50;;;;;;5077545;28;20284;-65
2021/07/30 12:11:02;;;;;;;4.60;4.20;;;29.00;49.30;;;;;;5046713;28;20598;-65
2021/07/30 12:13:29;;;;;;;4.95;4.45;;;29.10;49.90;;;;;;5054346;28;20510;-65
2021/07/30 12:15:55;;;;;;;4.95;4.18;;;29.10;49.40;;;;;;5041453;28;20526;-65
2021/07/30 12:18:21;;;;;;;4.72;4.32;;;29.10;49.60;;;;;;5041030;28;20395;-66
2021/07/30 12:20:48;;;;;;;5.18;4.32;;;29.10;49.80;;;;;;5041969;28;20082;-65
2021/07/30 12:23:18;;;;;;;6.38;4.20;;;29.10;49.90;;;;;;5044709;28;20114;-65
2021/07/30 12:25:46;;;;;;;4.78;4.10;;;29.20;49.20;;;;;;5043027;28;20344;-65
2021/07/30 12:28:13;;;;;;;4.50;4.10;;;29.20;49.00;;;;;;5077886;28;20332;-65
2021/07/30 12:30:40;;;;;;;5.13;4.63;;;29.30;48.90;;;;;;5041780;28;20044;-65
2021/07/30 12:33:24;;;;;;;4.68;4.28;;;29.30;49.10;;;;;;5047080;28;20474;-65
2021/07/30 12:36:00;;;;;;;4.60;4.20;;;29.30;48.70;;;;;;5043011;28;20075;-65
2021/07/30 12:38:25;;;;;;;5.82;4.03;;;29.30;50.10;;;;;;5042259;28;20128;-65
2021/07/30 12:40:51;;;;;;;8.55;4.90;;;29.30;49.30;;;;;;5047078;28;20455;-65
2021/07/30 12:43:18;;;;;;;4.60;4.18;;;29.40;48.90;;;;;;5041953;28;20036;-65
2021/07/30 12:45:47;;;;;;;4.88;4.47;;;29.30;49.00;;;;;;5055919;28;20064;-65
2021/07/30 12:48:20;;;;;;;4.63;4.22;;;29.30;48.80;;;;;;5039265;28;20056;-65
2021/07/30 12:50:47;;;;;;;4.75;4.35;;;29.30;49.20;;;;;;5075708;28;20071;-65